sensor_id;sensor_type;location;lat;lon;timestamp;P1;durP1;ratioP1;P2;durP2;ratioP2
21721;SDS011;11023;48.274;7.794;2023-08-01T00:01:31;2.58;;;1.38;;
21721;SDS011;11023;48.274;7.794;2023-08-01T00:03:57;2.47;;;1.40;;
21721;SDS011;11023;48.274;7.794;2023-08-01T00:06:23;1.83;;;0.95;;
21721;SDS011;11023;48.274;7.794;2023-08-01T00:08:50;3.78;;;1.38;;
21721;SDS011;11023;48.274;7.794;2023-08-01T00:11:16;2.70;;;1.35;;
21721;SDS011;11023;48.274;7.794;2023-08-01T00:13:42;3.47;;;1.20;;
21721;SDS011;11023;48.274;7.794;2023-08-01T00:16:08;3.60;;;1.60;;
21721;SDS011;11023;48.274;7.794;2023-08-01T00:18:34;1.55;;;1.05;;
21721;SDS011;11023;48.274;7.794;2023-08-01T00:21:00;1.80;;;1.10;;
21721;SDS011;11023;48.274;7.794;2023-08-01T00:23:26;2.45;;;1.20;;
21721;SDS011;11023;48.274;7.794;2023-08-01T00:25:52;2.08;;;1.10;;
21721;SDS011;11023;48.274;7.794;2023-08-01T00:28:18;2.80;;;1.25;;
21721;SDS011;11023;48.274;7.794;2023-08-01T00:30:44;2.45;;;1.30;;
21721;SDS011;11023;48.274;7.794;2023-08-01T00:33:09;4.47;;;1.25;;
21721;SDS011;11023;48.274;7.794;2023-08-01T00:35:35;2.67;;;1.67;;
21721;SDS011;11023;48.274;7.794;2023-08-01T00:38:01;3.17;;;1.63;;
21721;SDS011;11023;48.274;7.794;2023-08-01T00:40:30;3.35;;;1.42;;
21721;SDS011;11023;48.274;7.794;2023-08-01T00:42:57;3.67;;;1.58;;
21721;SDS011;11023;48.274;7.794;2023-08-01T00:45:24;2.70;;;1.40;;
21721;SDS011;11023;48.274;7.794;2023-08-01T00:47:54;3.35;;;1.38;;
21721;SDS011;11023;48.274;7.794;2023-08-01T00:50:20;3.08;;;1.60;;
21721;SDS011;11023;48.274;7.794;2023-08-01T00:52:47;2.30;;;1.52;;
21721;SDS011;11023;48.274;7.794;2023-08-01T00:55:15;2.70;;;1.38;;
21721;SDS011;11023;48.274;7.794;2023-08-01T00:57:41;3.80;;;1.55;;
21721;SDS011;11023;48.274;7.794;2023-08-01T01:00:11;5.75;;;1.65;;
21721;SDS011;11023;48.274;7.794;2023-08-01T01:02:37;3.35;;;1.55;;
21721;SDS011;11023;48.274;7.794;2023-08-01T01:05:03;3.40;;;1.35;;
21721;SDS011;11023;48.274;7.794;2023-08-01T01:07:30;1.33;;;1.17;;
21721;SDS011;11023;48.274;7.794;2023-08-01T01:09:57;1.20;;;1.08;;
21721;SDS011;11023;48.274;7.794;2023-08-01T01:12:24;3.40;;;1.58;;
21721;SDS011;11023;48.274;7.794;2023-08-01T01:14:51;1.98;;;1.30;;
21721;SDS011;11023;48.274;7.794;2023-08-01T01:17:16;3.33;;;1.52;;
21721;SDS011;11023;48.274;7.794;2023-08-01T01:19:42;2.13;;;1.30;;
21721;SDS011;11023;48.274;7.794;2023-08-01T01:22:08;1.73;;;1.13;;
21721;SDS011;11023;48.274;7.794;2023-08-01T01:24:36;2.15;;;1.25;;
21721;SDS011;11023;48.274;7.794;2023-08-01T01:27:03;3.38;;;1.02;;
21721;SDS011;11023;48.274;7.794;2023-08-01T01:29:31;3.75;;;1.58;;
21721;SDS011;11023;48.274;7.794;2023-08-01T01:31:59;2.55;;;1.42;;
21721;SDS011;11023;48.274;7.794;2023-08-01T01:34:27;2.17;;;1.40;;
21721;SDS011;11023;48.274;7.794;2023-08-01T01:36:53;2.13;;;1.38;;
21721;SDS011;11023;48.274;7.794;2023-08-01T01:39:20;3.13;;;1.10;;
21721;SDS011;11023;48.274;7.794;2023-08-01T01:41:46;2.70;;;1.50;;
21721;SDS011;11023;48.274;7.794;2023-08-01T01:44:12;2.95;;;1.25;;
21721;SDS011;11023;48.274;7.794;2023-08-01T01:46:37;2.40;;;1.23;;
21721;SDS011;11023;48.274;7.794;2023-08-01T01:49:03;0.95;;;0.93;;
21721;SDS011;11023;48.274;7.794;2023-08-01T01:51:29;3.30;;;1.23;;
21721;SDS011;11023;48.274;7.794;2023-08-01T01:53:56;2.78;;;1.05;;
21721;SDS011;11023;48.274;7.794;2023-08-01T01:56:21;2.10;;;1.30;;
21721;SDS011;11023;48.274;7.794;2023-08-01T01:58:47;2.33;;;1.45;;
21721;SDS011;11023;48.274;7.794;2023-08-01T02:01:13;2.20;;;0.88;;
21721;SDS011;11023;48.274;7.794;2023-08-01T02:03:39;2.08;;;1.25;;
21721;SDS011;11023;48.274;7.794;2023-08-01T02:06:06;2.08;;;1.30;;
21721;SDS011;11023;48.274;7.794;2023-08-01T02:08:32;3.05;;;1.30;;
21721;SDS011;11023;48.274;7.794;2023-08-01T02:10:58;2.75;;;1.30;;
21721;SDS011;11023;48.274;7.794;2023-08-01T02:13:24;1.55;;;1.02;;
21721;SDS011;11023;48.274;7.794;2023-08-01T02:15:53;3.78;;;1.17;;
21721;SDS011;11023;48.274;7.794;2023-08-01T02:18:19;2.60;;;1.23;;
21721;SDS011;11023;48.274;7.794;2023-08-01T02:20:46;2.30;;;1.30;;
21721;SDS011;11023;48.274;7.794;2023-08-01T02:23:12;3.70;;;1.10;;
21721;SDS011;11023;48.274;7.794;2023-08-01T02:25:38;3.88;;;1.60;;
21721;SDS011;11023;48.274;7.794;2023-08-01T02:28:05;2.33;;;1.13;;
21721;SDS011;11023;48.274;7.794;2023-08-01T02:30:31;2.15;;;1.23;;
21721;SDS011;11023;48.274;7.794;2023-08-01T02:32:57;2.13;;;1.40;;
21721;SDS011;11023;48.274;7.794;2023-08-01T02:37:56;3.20;;;1.50;;
21721;SDS011;11023;48.274;7.794;2023-08-01T02:40:22;3.35;;;1.27;;
21721;SDS011;11023;48.274;7.794;2023-08-01T02:42:47;4.38;;;1.38;;
21721;SDS011;11023;48.274;7.794;2023-08-01T02:45:13;1.45;;;1.05;;
21721;SDS011;11023;48.274;7.794;2023-08-01T02:47:39;2.55;;;1.38;;
21721;SDS011;11023;48.274;7.794;2023-08-01T02:50:05;3.55;;;1.30;;
21721;SDS011;11023;48.274;7.794;2023-08-01T02:52:31;4.40;;;1.30;;
21721;SDS011;11023;48.274;7.794;2023-08-01T02:54:56;1.75;;;1.20;;
21721;SDS011;11023;48.274;7.794;2023-08-01T02:57:22;1.33;;;1.20;;
21721;SDS011;11023;48.274;7.794;2023-08-01T02:59:48;6.32;;;1.10;;
21721;SDS011;11023;48.274;7.794;2023-08-01T03:02:14;3.03;;;1.50;;
21721;SDS011;11023;48.274;7.794;2023-08-01T03:04:39;3.83;;;1.17;;
21721;SDS011;11023;48.274;7.794;2023-08-01T03:07:05;3.08;;;1.17;;
21721;SDS011;11023;48.274;7.794;2023-08-01T03:09:32;2.65;;;1.25;;
21721;SDS011;11023;48.274;7.794;2023-08-01T03:11:57;2.00;;;1.00;;
21721;SDS011;11023;48.274;7.794;2023-08-01T03:14:23;4.40;;;1.27;;
21721;SDS011;11023;48.274;7.794;2023-08-01T03:16:49;2.05;;;1.25;;
21721;SDS011;11023;48.274;7.794;2023-08-01T03:19:14;2.20;;;1.38;;
21721;SDS011;11023;48.274;7.794;2023-08-01T03:21:40;3.67;;;1.60;;
21721;SDS011;11023;48.274;7.794;2023-08-01T03:24:06;3.20;;;1.23;;
21721;SDS011;11023;48.274;7.794;2023-08-01T03:26:34;3.17;;;1.60;;
21721;SDS011;11023;48.274;7.794;2023-08-01T03:29:00;1.83;;;1.52;;
21721;SDS011;11023;48.274;7.794;2023-08-01T03:31:27;2.80;;;1.30;;
21721;SDS011;11023;48.274;7.794;2023-08-01T03:33:52;2.53;;;1.20;;
21721;SDS011;11023;48.274;7.794;2023-08-01T03:36:18;5.82;;;1.50;;
21721;SDS011;11023;48.274;7.794;2023-08-01T03:38:45;2.17;;;1.10;;
21721;SDS011;11023;48.274;7.794;2023-08-01T03:41:11;2.33;;;1.58;;
21721;SDS011;11023;48.274;7.794;2023-08-01T03:43:37;4.10;;;1.77;;
21721;SDS011;11023;48.274;7.794;2023-08-01T03:46:03;4.47;;;1.77;;
21721;SDS011;11023;48.274;7.794;2023-08-01T03:48:30;1.60;;;1.10;;
21721;SDS011;11023;48.274;7.794;2023-08-01T03:50:56;2.97;;;1.27;;
21721;SDS011;11023;48.274;7.794;2023-08-01T03:53:21;3.88;;;1.23;;
21721;SDS011;11023;48.274;7.794;2023-08-01T03:55:47;2.28;;;1.27;;
21721;SDS011;11023;48.274;7.794;2023-08-01T03:58:16;2.70;;;1.48;;
21721;SDS011;11023;48.274;7.794;2023-08-01T04:00:42;2.78;;;1.73;;
21721;SDS011;11023;48.274;7.794;2023-08-01T04:03:09;2.85;;;1.20;;
21721;SDS011;11023;48.274;7.794;2023-08-01T04:05:35;1.60;;;1.17;;
21721;SDS011;11023;48.274;7.794;2023-08-01T04:08:00;4.03;;;1.75;;
21721;SDS011;11023;48.274;7.794;2023-08-01T04:10:27;6.50;;;1.50;;
21721;SDS011;11023;48.274;7.794;2023-08-01T04:12:52;3.13;;;1.70;;
21721;SDS011;11023;48.274;7.794;2023-08-01T04:15:18;2.35;;;1.55;;
21721;SDS011;11023;48.274;7.794;2023-08-01T04:17:44;4.55;;;1.60;;
21721;SDS011;11023;48.274;7.794;2023-08-01T04:20:10;3.53;;;1.58;;
21721;SDS011;11023;48.274;7.794;2023-08-01T04:22:36;3.65;;;1.83;;
21721;SDS011;11023;48.274;7.794;2023-08-01T04:25:02;3.90;;;1.42;;
21721;SDS011;11023;48.274;7.794;2023-08-01T04:27:28;3.38;;;1.40;;
21721;SDS011;11023;48.274;7.794;2023-08-01T04:29:55;4.57;;;1.45;;
21721;SDS011;11023;48.274;7.794;2023-08-01T04:32:24;4.13;;;1.52;;
21721;SDS011;11023;48.274;7.794;2023-08-01T04:34:50;4.20;;;1.10;;
21721;SDS011;11023;48.274;7.794;2023-08-01T04:37:24;2.38;;;1.50;;
21721;SDS011;11023;48.274;7.794;2023-08-01T04:39:51;6.05;;;1.85;;
21721;SDS011;11023;48.274;7.794;2023-08-01T04:42:17;4.55;;;1.60;;
21721;SDS011;11023;48.274;7.794;2023-08-01T04:44:43;2.45;;;1.50;;
21721;SDS011;11023;48.274;7.794;2023-08-01T04:47:08;1.27;;;0.90;;
21721;SDS011;11023;48.274;7.794;2023-08-01T04:49:34;2.88;;;1.33;;
21721;SDS011;11023;48.274;7.794;2023-08-01T04:52:00;3.10;;;1.58;;
21721;SDS011;11023;48.274;7.794;2023-08-01T04:54:26;3.83;;;1.52;;
21721;SDS011;11023;48.274;7.794;2023-08-01T04:56:52;4.35;;;1.55;;
21721;SDS011;11023;48.274;7.794;2023-08-01T04:59:18;3.78;;;1.60;;
21721;SDS011;11023;48.274;7.794;2023-08-01T05:01:44;3.05;;;1.60;;
21721;SDS011;11023;48.274;7.794;2023-08-01T05:04:10;6.15;;;1.95;;
21721;SDS011;11023;48.274;7.794;2023-08-01T05:06:36;5.85;;;1.48;;
21721;SDS011;11023;48.274;7.794;2023-08-01T05:09:02;3.70;;;1.55;;
21721;SDS011;11023;48.274;7.794;2023-08-01T05:11:29;2.67;;;1.60;;
21721;SDS011;11023;48.274;7.794;2023-08-01T05:13:55;6.20;;;1.20;;
21721;SDS011;11023;48.274;7.794;2023-08-01T05:16:20;2.80;;;1.50;;
21721;SDS011;11023;48.274;7.794;2023-08-01T05:18:46;1.73;;;1.40;;
21721;SDS011;11023;48.274;7.794;2023-08-01T05:21:12;3.60;;;1.60;;
21721;SDS011;11023;48.274;7.794;2023-08-01T05:23:38;2.30;;;1.30;;
21721;SDS011;11023;48.274;7.794;2023-08-01T05:26:05;4.82;;;2.00;;
21721;SDS011;11023;48.274;7.794;2023-08-01T05:28:30;2.22;;;1.33;;
21721;SDS011;11023;48.274;7.794;2023-08-01T05:30:56;1.70;;;1.38;;
21721;SDS011;11023;48.274;7.794;2023-08-01T05:33:22;3.85;;;1.50;;
21721;SDS011;11023;48.274;7.794;2023-08-01T05:35:48;3.75;;;1.70;;
21721;SDS011;11023;48.274;7.794;2023-08-01T05:38:15;3.67;;;1.67;;
21721;SDS011;11023;48.274;7.794;2023-08-01T05:40:41;5.10;;;1.15;;
21721;SDS011;11023;48.274;7.794;2023-08-01T05:43:07;8.45;;;1.77;;
21721;SDS011;11023;48.274;7.794;2023-08-01T05:45:36;3.38;;;1.25;;
21721;SDS011;11023;48.274;7.794;2023-08-01T05:48:02;5.45;;;1.67;;
21721;SDS011;11023;48.274;7.794;2023-08-01T05:50:28;4.43;;;1.58;;
21721;SDS011;11023;48.274;7.794;2023-08-01T05:52:54;2.88;;;1.40;;
21721;SDS011;11023;48.274;7.794;2023-08-01T05:55:20;4.18;;;1.65;;
21721;SDS011;11023;48.274;7.794;2023-08-01T05:57:46;5.22;;;1.83;;
21721;SDS011;11023;48.274;7.794;2023-08-01T06:00:14;3.58;;;2.00;;
21721;SDS011;11023;48.274;7.794;2023-08-01T06:02:40;1.60;;;1.15;;
21721;SDS011;11023;48.274;7.794;2023-08-01T06:05:06;2.03;;;1.42;;
21721;SDS011;11023;48.274;7.794;2023-08-01T06:07:32;4.55;;;1.50;;
21721;SDS011;11023;48.274;7.794;2023-08-01T06:09:58;5.20;;;1.60;;
21721;SDS011;11023;48.274;7.794;2023-08-01T06:12:24;2.22;;;1.55;;
21721;SDS011;11023;48.274;7.794;2023-08-01T06:14:50;3.45;;;1.23;;
21721;SDS011;11023;48.274;7.794;2023-08-01T06:17:16;2.78;;;1.27;;
21721;SDS011;11023;48.274;7.794;2023-08-01T06:19:43;4.55;;;1.45;;
21721;SDS011;11023;48.274;7.794;2023-08-01T06:22:09;2.47;;;1.15;;
21721;SDS011;11023;48.274;7.794;2023-08-01T06:24:34;3.20;;;1.40;;
21721;SDS011;11023;48.274;7.794;2023-08-01T06:27:00;2.15;;;1.40;;
21721;SDS011;11023;48.274;7.794;2023-08-01T06:29:26;3.72;;;1.23;;
21721;SDS011;11023;48.274;7.794;2023-08-01T06:31:52;4.63;;;1.20;;
21721;SDS011;11023;48.274;7.794;2023-08-01T06:34:18;2.17;;;1.38;;
21721;SDS011;11023;48.274;7.794;2023-08-01T06:36:43;5.43;;;1.40;;
21721;SDS011;11023;48.274;7.794;2023-08-01T06:39:09;3.92;;;1.60;;
21721;SDS011;11023;48.274;7.794;2023-08-01T06:41:36;3.75;;;1.45;;
21721;SDS011;11023;48.274;7.794;2023-08-01T06:44:01;1.80;;;1.27;;
21721;SDS011;11023;48.274;7.794;2023-08-01T06:46:27;3.42;;;1.55;;
21721;SDS011;11023;48.274;7.794;2023-08-01T06:48:53;2.75;;;1.38;;
21721;SDS011;11023;48.274;7.794;2023-08-01T06:51:19;5.50;;;1.60;;
21721;SDS011;11023;48.274;7.794;2023-08-01T06:53:45;2.22;;;1.38;;
21721;SDS011;11023;48.274;7.794;2023-08-01T06:56:11;1.70;;;1.30;;
21721;SDS011;11023;48.274;7.794;2023-08-01T06:58:37;2.30;;;0.98;;
21721;SDS011;11023;48.274;7.794;2023-08-01T07:01:02;2.92;;;1.20;;
21721;SDS011;11023;48.274;7.794;2023-08-01T07:03:28;2.90;;;1.20;;
21721;SDS011;11023;48.274;7.794;2023-08-01T07:05:54;2.95;;;1.27;;
21721;SDS011;11023;48.274;7.794;2023-08-01T07:08:20;4.57;;;1.63;;
21721;SDS011;11023;48.274;7.794;2023-08-01T07:10:46;2.28;;;1.02;;
21721;SDS011;11023;48.274;7.794;2023-08-01T07:13:13;3.28;;;1.10;;
21721;SDS011;11023;48.274;7.794;2023-08-01T07:15:41;7.50;;;1.80;;
21721;SDS011;11023;48.274;7.794;2023-08-01T07:18:07;3.15;;;1.60;;
21721;SDS011;11023;48.274;7.794;2023-08-01T07:20:33;5.28;;;1.30;;
21721;SDS011;11023;48.274;7.794;2023-08-01T07:22:59;2.08;;;1.27;;
21721;SDS011;11023;48.274;7.794;2023-08-01T07:25:24;2.03;;;1.10;;
21721;SDS011;11023;48.274;7.794;2023-08-01T07:27:50;2.95;;;1.40;;
21721;SDS011;11023;48.274;7.794;2023-08-01T07:30:18;3.50;;;1.50;;
21721;SDS011;11023;48.274;7.794;2023-08-01T07:32:45;3.08;;;1.10;;
21721;SDS011;11023;48.274;7.794;2023-08-01T07:35:12;2.88;;;1.30;;
21721;SDS011;11023;48.274;7.794;2023-08-01T07:37:38;2.72;;;1.30;;
21721;SDS011;11023;48.274;7.794;2023-08-01T07:40:06;2.45;;;1.15;;
21721;SDS011;11023;48.274;7.794;2023-08-01T07:42:35;1.88;;;1.02;;
21721;SDS011;11023;48.274;7.794;2023-08-01T07:45:00;2.10;;;1.27;;
21721;SDS011;11023;48.274;7.794;2023-08-01T07:47:26;3.55;;;1.70;;
21721;SDS011;11023;48.274;7.794;2023-08-01T07:49:52;5.10;;;1.30;;
21721;SDS011;11023;48.274;7.794;2023-08-01T07:52:18;3.50;;;1.40;;
21721;SDS011;11023;48.274;7.794;2023-08-01T07:54:44;3.17;;;1.15;;
21721;SDS011;11023;48.274;7.794;2023-08-01T07:57:10;3.83;;;1.15;;
21721;SDS011;11023;48.274;7.794;2023-08-01T07:59:36;3.17;;;1.48;;
21721;SDS011;11023;48.274;7.794;2023-08-01T08:02:02;3.75;;;1.15;;
21721;SDS011;11023;48.274;7.794;2023-08-01T08:04:27;2.97;;;1.40;;
21721;SDS011;11023;48.274;7.794;2023-08-01T08:06:55;2.45;;;1.20;;
21721;SDS011;11023;48.274;7.794;2023-08-01T08:09:24;1.98;;;1.20;;
21721;SDS011;11023;48.274;7.794;2023-08-01T08:11:51;3.83;;;1.30;;
21721;SDS011;11023;48.274;7.794;2023-08-01T08:14:17;4.03;;;1.42;;
21721;SDS011;11023;48.274;7.794;2023-08-01T08:16:46;3.35;;;1.40;;
21721;SDS011;11023;48.274;7.794;2023-08-01T08:19:11;2.55;;;1.38;;
21721;SDS011;11023;48.274;7.794;2023-08-01T08:21:39;5.60;;;1.40;;
21721;SDS011;11023;48.274;7.794;2023-08-01T08:24:06;3.95;;;1.13;;
21721;SDS011;11023;48.274;7.794;2023-08-01T08:26:32;2.42;;;1.17;;
21721;SDS011;11023;48.274;7.794;2023-08-01T08:29:03;1.40;;;1.00;;
21721;SDS011;11023;48.274;7.794;2023-08-01T08:31:32;2.88;;;1.00;;
21721;SDS011;11023;48.274;7.794;2023-08-01T08:33:58;3.63;;;1.08;;
21721;SDS011;11023;48.274;7.794;2023-08-01T08:36:25;2.58;;;1.35;;
21721;SDS011;11023;48.274;7.794;2023-08-01T08:38:51;3.20;;;1.05;;
21721;SDS011;11023;48.274;7.794;2023-08-01T08:41:20;2.45;;;1.10;;
21721;SDS011;11023;48.274;7.794;2023-08-01T08:46:19;3.03;;;1.50;;
21721;SDS011;11023;48.274;7.794;2023-08-01T08:48:47;1.52;;;0.88;;
21721;SDS011;11023;48.274;7.794;2023-08-01T08:51:13;2.08;;;0.95;;
21721;SDS011;11023;48.274;7.794;2023-08-01T08:53:40;3.05;;;1.27;;
21721;SDS011;11023;48.274;7.794;2023-08-01T08:56:06;2.63;;;1.30;;
21721;SDS011;11023;48.274;7.794;2023-08-01T08:58:34;1.45;;;1.02;;
21721;SDS011;11023;48.274;7.794;2023-08-01T09:01:05;2.08;;;1.13;;
21721;SDS011;11023;48.274;7.794;2023-08-01T09:03:32;2.10;;;1.10;;
21721;SDS011;11023;48.274;7.794;2023-08-01T09:06:06;2.25;;;1.05;;
21721;SDS011;11023;48.274;7.794;2023-08-01T09:08:35;1.33;;;0.98;;
21721;SDS011;11023;48.274;7.794;2023-08-01T09:11:02;2.25;;;1.20;;
21721;SDS011;11023;48.274;7.794;2023-08-01T09:13:29;2.17;;;1.00;;
21721;SDS011;11023;48.274;7.794;2023-08-01T09:15:54;2.47;;;0.90;;
21721;SDS011;11023;48.274;7.794;2023-08-01T09:18:22;1.67;;;0.88;;
21721;SDS011;11023;48.274;7.794;2023-08-01T09:20:48;2.92;;;1.00;;
21721;SDS011;11023;48.274;7.794;2023-08-01T09:23:15;3.65;;;0.70;;
21721;SDS011;11023;48.274;7.794;2023-08-01T09:25:42;3.20;;;1.10;;
21721;SDS011;11023;48.274;7.794;2023-08-01T09:28:18;1.05;;;0.73;;
21721;SDS011;11023;48.274;7.794;2023-08-01T09:30:49;1.98;;;1.00;;
21721;SDS011;11023;48.274;7.794;2023-08-01T09:33:16;1.92;;;1.05;;
21721;SDS011;11023;48.274;7.794;2023-08-01T09:35:42;1.50;;;0.77;;
21721;SDS011;11023;48.274;7.794;2023-08-01T09:38:11;1.27;;;0.75;;
21721;SDS011;11023;48.274;7.794;2023-08-01T09:40:39;1.13;;;0.70;;
21721;SDS011;11023;48.274;7.794;2023-08-01T09:43:05;1.08;;;0.90;;
21721;SDS011;11023;48.274;7.794;2023-08-01T09:45:31;2.65;;;1.00;;
21721;SDS011;11023;48.274;7.794;2023-08-01T09:47:59;2.28;;;1.10;;
21721;SDS011;11023;48.274;7.794;2023-08-01T09:50:25;2.50;;;0.80;;
21721;SDS011;11023;48.274;7.794;2023-08-01T09:52:51;2.10;;;1.15;;
21721;SDS011;11023;48.274;7.794;2023-08-01T09:55:28;1.77;;;0.93;;
21721;SDS011;11023;48.274;7.794;2023-08-01T09:57:57;1.35;;;0.98;;
21721;SDS011;11023;48.274;7.794;2023-08-01T10:00:27;1.15;;;0.80;;
21721;SDS011;11023;48.274;7.794;2023-08-01T10:02:55;1.92;;;0.90;;
21721;SDS011;11023;48.274;7.794;2023-08-01T10:05:25;1.60;;;1.08;;
21721;SDS011;11023;48.274;7.794;2023-08-01T10:07:56;2.25;;;1.08;;
21721;SDS011;11023;48.274;7.794;2023-08-01T10:10:25;3.30;;;1.23;;
21721;SDS011;11023;48.274;7.794;2023-08-01T10:12:51;2.03;;;1.00;;
21721;SDS011;11023;48.274;7.794;2023-08-01T10:15:19;1.25;;;0.98;;
21721;SDS011;11023;48.274;7.794;2023-08-01T10:17:46;2.30;;;1.20;;
21721;SDS011;11023;48.274;7.794;2023-08-01T10:20:11;1.13;;;0.68;;
21721;SDS011;11023;48.274;7.794;2023-08-01T10:22:39;1.98;;;0.90;;
21721;SDS011;11023;48.274;7.794;2023-08-01T10:25:06;0.95;;;0.60;;
21721;SDS011;11023;48.274;7.794;2023-08-01T10:27:35;0.50;;;0.50;;
21721;SDS011;11023;48.274;7.794;2023-08-01T10:30:02;1.10;;;0.47;;
21721;SDS011;11023;48.274;7.794;2023-08-01T10:32:33;0.68;;;0.57;;
21721;SDS011;11023;48.274;7.794;2023-08-01T10:35:03;0.93;;;0.60;;
21721;SDS011;11023;48.274;7.794;2023-08-01T10:37:43;1.10;;;0.40;;
21721;SDS011;11023;48.274;7.794;2023-08-01T10:40:13;0.30;;;0.30;;
21721;SDS011;11023;48.274;7.794;2023-08-01T10:42:41;0.88;;;0.40;;
21721;SDS011;11023;48.274;7.794;2023-08-01T10:45:23;0.38;;;0.20;;
21721;SDS011;11023;48.274;7.794;2023-08-01T10:47:49;3.65;;;0.22;;
21721;SDS011;11023;48.274;7.794;2023-08-01T10:50:16;0.17;;;0.17;;
21721;SDS011;11023;48.274;7.794;2023-08-01T10:52:42;0.20;;;0.20;;
21721;SDS011;11023;48.274;7.794;2023-08-01T10:55:09;0.47;;;0.32;;
21721;SDS011;11023;48.274;7.794;2023-08-01T10:57:36;0.47;;;0.20;;
21721;SDS011;11023;48.274;7.794;2023-08-01T11:00:04;0.93;;;0.20;;
21721;SDS011;11023;48.274;7.794;2023-08-01T11:02:38;0.10;;;0.10;;
21721;SDS011;11023;48.274;7.794;2023-08-01T11:05:04;0.20;;;0.17;;
21721;SDS011;11023;48.274;7.794;2023-08-01T11:07:32;0.25;;;0.17;;
21721;SDS011;11023;48.274;7.794;2023-08-01T11:10:04;0.75;;;0.40;;
21721;SDS011;11023;48.274;7.794;2023-08-01T11:12:41;0.43;;;0.30;;
21721;SDS011;11023;48.274;7.794;2023-08-01T11:17:37;1.10;;;0.40;;
21721;SDS011;11023;48.274;7.794;2023-08-01T11:20:05;0.50;;;0.40;;
21721;SDS011;11023;48.274;7.794;2023-08-01T11:22:34;0.75;;;0.30;;
21721;SDS011;11023;48.274;7.794;2023-08-01T11:25:01;0.28;;;0.20;;
21721;SDS011;11023;48.274;7.794;2023-08-01T11:27:27;0.32;;;0.30;;
21721;SDS011;11023;48.274;7.794;2023-08-01T11:29:53;0.65;;;0.20;;
21721;SDS011;11023;48.274;7.794;2023-08-01T11:32:19;0.30;;;0.30;;
21721;SDS011;11023;48.274;7.794;2023-08-01T11:34:46;0.57;;;0.35;;
21721;SDS011;11023;48.274;7.794;2023-08-01T11:37:13;0.57;;;0.30;;
21721;SDS011;11023;48.274;7.794;2023-08-01T11:39:40;0.45;;;0.30;;
21721;SDS011;11023;48.274;7.794;2023-08-01T11:42:06;0.43;;;0.43;;
21721;SDS011;11023;48.274;7.794;2023-08-01T11:44:32;0.38;;;0.30;;
21721;SDS011;11023;48.274;7.794;2023-08-01T11:46:58;0.40;;;0.30;;
21721;SDS011;11023;48.274;7.794;2023-08-01T11:49:23;0.30;;;0.30;;
21721;SDS011;11023;48.274;7.794;2023-08-01T11:51:51;0.50;;;0.13;;
21721;SDS011;11023;48.274;7.794;2023-08-01T11:54:17;0.85;;;0.25;;
21721;SDS011;11023;48.274;7.794;2023-08-01T11:56:43;0.57;;;0.40;;
21721;SDS011;11023;48.274;7.794;2023-08-01T11:59:09;0.80;;;0.40;;
21721;SDS011;11023;48.274;7.794;2023-08-01T12:01:43;0.22;;;0.22;;
21721;SDS011;11023;48.274;7.794;2023-08-01T12:04:10;0.38;;;0.10;;
21721;SDS011;11023;48.274;7.794;2023-08-01T12:06:36;0.45;;;0.20;;
21721;SDS011;11023;48.274;7.794;2023-08-01T12:09:10;0.50;;;0.40;;
21721;SDS011;11023;48.274;7.794;2023-08-01T12:11:38;0.25;;;0.20;;
21721;SDS011;11023;48.274;7.794;2023-08-01T12:14:11;0.40;;;0.20;;
21721;SDS011;11023;48.274;7.794;2023-08-01T12:19:05;0.52;;;0.30;;
21721;SDS011;11023;48.274;7.794;2023-08-01T12:21:33;0.20;;;0.20;;
21721;SDS011;11023;48.274;7.794;2023-08-01T12:23:59;0.32;;;0.30;;
21721;SDS011;11023;48.274;7.794;2023-08-01T12:26:25;0.20;;;0.20;;
21721;SDS011;11023;48.274;7.794;2023-08-01T12:28:51;0.30;;;0.30;;
21721;SDS011;11023;48.274;7.794;2023-08-01T12:31:17;0.30;;;0.30;;
21721;SDS011;11023;48.274;7.794;2023-08-01T12:33:45;0.40;;;0.20;;
21721;SDS011;11023;48.274;7.794;2023-08-01T12:36:15;0.35;;;0.30;;
21721;SDS011;11023;48.274;7.794;2023-08-01T12:38:41;1.27;;;0.30;;
21721;SDS011;11023;48.274;7.794;2023-08-01T12:41:07;1.00;;;0.50;;
21721;SDS011;11023;48.274;7.794;2023-08-01T12:43:33;0.32;;;0.30;;
21721;SDS011;11023;48.274;7.794;2023-08-01T12:45:59;0.40;;;0.30;;
21721;SDS011;11023;48.274;7.794;2023-08-01T12:48:25;0.22;;;0.20;;
21721;SDS011;11023;48.274;7.794;2023-08-01T12:50:51;0.28;;;0.20;;
21721;SDS011;11023;48.274;7.794;2023-08-01T12:53:18;2.90;;;0.30;;
21721;SDS011;11023;48.274;7.794;2023-08-01T12:55:47;0.20;;;0.20;;
21721;SDS011;11023;48.274;7.794;2023-08-01T12:58:14;0.30;;;0.30;;
21721;SDS011;11023;48.274;7.794;2023-08-01T13:00:40;1.83;;;0.50;;
21721;SDS011;11023;48.274;7.794;2023-08-01T13:03:06;0.68;;;0.40;;
21721;SDS011;11023;48.274;7.794;2023-08-01T13:05:36;0.30;;;0.20;;
21721;SDS011;11023;48.274;7.794;2023-08-01T13:08:04;0.80;;;0.40;;
21721;SDS011;11023;48.274;7.794;2023-08-01T13:10:30;0.22;;;0.22;;
21721;SDS011;11023;48.274;7.794;2023-08-01T13:13:01;1.10;;;0.50;;
21721;SDS011;11023;48.274;7.794;2023-08-01T13:15:27;0.60;;;0.30;;
21721;SDS011;11023;48.274;7.794;2023-08-01T13:17:53;0.55;;;0.30;;
21721;SDS011;11023;48.274;7.794;2023-08-01T13:20:20;1.42;;;0.30;;
21721;SDS011;11023;48.274;7.794;2023-08-01T13:22:46;0.52;;;0.35;;
21721;SDS011;11023;48.274;7.794;2023-08-01T13:25:14;0.90;;;0.43;;
21721;SDS011;11023;48.274;7.794;2023-08-01T13:27:41;1.13;;;0.43;;
21721;SDS011;11023;48.274;7.794;2023-08-01T13:30:07;0.57;;;0.40;;
21721;SDS011;11023;48.274;7.794;2023-08-01T13:32:33;0.25;;;0.25;;
21721;SDS011;11023;48.274;7.794;2023-08-01T13:34:59;0.38;;;0.38;;
21721;SDS011;11023;48.274;7.794;2023-08-01T13:37:25;0.43;;;0.40;;
21721;SDS011;11023;48.274;7.794;2023-08-01T13:39:51;0.30;;;0.30;;
21721;SDS011;11023;48.274;7.794;2023-08-01T13:42:17;0.85;;;0.47;;
21721;SDS011;11023;48.274;7.794;2023-08-01T13:44:43;0.40;;;0.40;;
21721;SDS011;11023;48.274;7.794;2023-08-01T13:47:08;1.13;;;0.50;;
21721;SDS011;11023;48.274;7.794;2023-08-01T13:49:35;1.02;;;0.50;;
21721;SDS011;11023;48.274;7.794;2023-08-01T13:52:00;0.32;;;0.30;;
21721;SDS011;11023;48.274;7.794;2023-08-01T13:54:28;1.20;;;0.50;;
21721;SDS011;11023;48.274;7.794;2023-08-01T13:56:53;1.42;;;0.40;;
21721;SDS011;11023;48.274;7.794;2023-08-01T13:59:19;0.30;;;0.30;;
21721;SDS011;11023;48.274;7.794;2023-08-01T14:01:45;0.77;;;0.28;;
21721;SDS011;11023;48.274;7.794;2023-08-01T14:04:11;0.32;;;0.30;;
21721;SDS011;11023;48.274;7.794;2023-08-01T14:06:40;0.43;;;0.30;;
21721;SDS011;11023;48.274;7.794;2023-08-01T14:09:09;0.47;;;0.30;;
21721;SDS011;11023;48.274;7.794;2023-08-01T14:11:35;0.30;;;0.30;;
21721;SDS011;11023;48.274;7.794;2023-08-01T14:14:01;0.30;;;0.30;;
21721;SDS011;11023;48.274;7.794;2023-08-01T14:16:27;0.35;;;0.35;;
21721;SDS011;11023;48.274;7.794;2023-08-01T14:18:53;1.00;;;0.40;;
21721;SDS011;11023;48.274;7.794;2023-08-01T14:21:19;0.35;;;0.30;;
21721;SDS011;11023;48.274;7.794;2023-08-01T14:23:45;0.90;;;0.50;;
21721;SDS011;11023;48.274;7.794;2023-08-01T14:26:10;0.45;;;0.35;;
21721;SDS011;11023;48.274;7.794;2023-08-01T14:28:36;0.30;;;0.30;;
21721;SDS011;11023;48.274;7.794;2023-08-01T14:31:02;1.10;;;0.50;;
21721;SDS011;11023;48.274;7.794;2023-08-01T14:33:28;0.93;;;0.40;;
21721;SDS011;11023;48.274;7.794;2023-08-01T14:35:55;0.82;;;0.50;;
21721;SDS011;11023;48.274;7.794;2023-08-01T14:38:20;0.55;;;0.40;;
21721;SDS011;11023;48.274;7.794;2023-08-01T14:40:46;0.32;;;0.32;;
21721;SDS011;11023;48.274;7.794;2023-08-01T14:43:12;0.75;;;0.50;;
21721;SDS011;11023;48.274;7.794;2023-08-01T14:45:39;0.30;;;0.30;;
21721;SDS011;11023;48.274;7.794;2023-08-01T14:48:08;1.48;;;0.30;;
21721;SDS011;11023;48.274;7.794;2023-08-01T14:50:34;0.82;;;0.45;;
21721;SDS011;11023;48.274;7.794;2023-08-01T14:53:00;1.38;;;0.60;;
21721;SDS011;11023;48.274;7.794;2023-08-01T14:55:31;0.65;;;0.40;;